createdAt,value
2023-05-06T00:00:26.104Z,5.93
2023-05-06T00:03:01.732Z,5.88
2023-05-06T00:08:09.126Z,6.88
2023-05-06T00:10:42.650Z,6.00
2023-05-06T00:13:16.194Z,5.93
2023-05-06T00:15:49.808Z,6.50
2023-05-06T00:18:24.737Z,4.97
2023-05-06T00:20:58.203Z,5.30
2023-05-06T00:23:31.725Z,4.95
2023-05-06T00:26:05.593Z,5.03
2023-05-06T00:28:39.178Z,5.55
2023-05-06T00:31:12.847Z,4.90
2023-05-06T00:33:47.872Z,4.82
2023-05-06T00:36:21.491Z,5.88
2023-05-06T00:38:55.173Z,5.25
2023-05-06T00:41:32.574Z,5.15
2023-05-06T00:44:06.392Z,5.00
2023-05-06T00:46:40.496Z,6.10
2023-05-06T00:49:15.424Z,5.03
2023-05-06T00:51:49.518Z,5.13
2023-05-06T00:54:23.630Z,5.07
2023-05-06T00:56:57.183Z,5.53
2023-05-06T00:59:30.877Z,5.07
2023-05-06T01:02:04.514Z,5.13
2023-05-06T01:04:41.602Z,5.07
2023-05-06T01:07:26.127Z,5.00
2023-05-06T01:10:08.842Z,4.50
2023-05-06T01:15:26.638Z,4.10
2023-05-06T01:18:02.423Z,4.28
2023-05-06T01:20:38.380Z,3.60
2023-05-06T01:23:14.857Z,4.05
2023-05-06T01:25:48.459Z,4.47
2023-05-06T01:28:23.476Z,5.43
2023-05-06T01:31:01.479Z,5.32
2023-05-06T01:33:43.081Z,5.72
2023-05-06T01:36:23.551Z,5.10
2023-05-06T01:39:10.170Z,4.75
2023-05-06T01:41:44.479Z,5.20
2023-05-06T01:44:18.932Z,5.13
2023-05-06T01:46:54.057Z,5.63
2023-05-06T01:49:28.688Z,4.63
2023-05-06T01:52:03.589Z,4.55
2023-05-06T01:54:38.574Z,4.07
2023-05-06T01:57:12.135Z,4.05
2023-05-06T01:59:45.694Z,3.95
2023-05-06T02:02:19.203Z,4.65
2023-05-06T02:04:54.530Z,3.78
2023-05-06T02:07:28.166Z,4.70
2023-05-06T02:10:04.290Z,4.32
2023-05-06T02:12:39.822Z,3.95
2023-05-06T02:15:13.528Z,4.30
2023-05-06T02:17:47.107Z,4.57
2023-05-06T02:20:20.648Z,4.20
2023-05-06T02:22:54.211Z,4.75
2023-05-06T02:25:31.591Z,4.70
2023-05-06T02:28:05.567Z,4.45
2023-05-06T02:30:39.271Z,4.15
2023-05-06T02:33:13.196Z,4.40
2023-05-06T02:35:46.990Z,4.43
2023-05-06T02:38:23.199Z,4.82
2023-05-06T02:40:58.166Z,4.10
2023-05-06T02:43:33.097Z,4.80
2023-05-06T02:46:06.820Z,5.30
2023-05-06T02:48:40.693Z,4.40
2023-05-06T02:51:16.073Z,4.75
2023-05-06T02:53:49.625Z,4.85
2023-05-06T02:56:24.649Z,4.00
2023-05-06T02:58:58.191Z,4.43
2023-05-06T03:01:31.818Z,5.03
2023-05-06T03:04:05.522Z,4.80
2023-05-06T03:06:39.101Z,3.58
2023-05-06T03:09:12.616Z,4.35
2023-05-06T03:11:48.397Z,4.68
2023-05-06T03:14:22.114Z,4.20
2023-05-06T03:16:56.564Z,4.47
2023-05-06T03:19:30.334Z,4.40
2023-05-06T03:22:04.316Z,4.35
2023-05-06T03:24:39.944Z,4.45
2023-05-06T03:27:15.345Z,4.43
2023-05-06T03:29:50.689Z,4.10
2023-05-06T03:32:25.903Z,4.45
2023-05-06T03:34:59.771Z,4.22
2023-05-06T03:37:33.513Z,4.88
2023-05-06T03:40:09.238Z,4.22
2023-05-06T03:42:44.259Z,4.25
2023-05-06T03:45:18.289Z,4.30
2023-05-06T03:47:53.044Z,5.25
2023-05-06T03:50:28.933Z,5.38
2023-05-06T03:53:02.599Z,6.07
2023-05-06T03:55:37.920Z,10.05
2023-05-06T03:58:13.673Z,8.80
2023-05-06T04:00:49.353Z,9.18
2023-05-06T04:03:23.768Z,8.02
2023-05-06T04:05:58.510Z,7.78
2023-05-06T04:08:33.333Z,8.77
2023-05-06T04:11:08.871Z,8.10
2023-05-06T04:13:45.380Z,8.38
2023-05-06T04:16:22.679Z,7.80
2023-05-06T04:18:57.645Z,6.70
2023-05-06T04:21:32.262Z,7.40
2023-05-06T04:24:10.931Z,7.80
2023-05-06T04:26:46.308Z,8.68
2023-05-06T04:29:21.992Z,7.97
2023-05-06T04:32:04.918Z,8.88
2023-05-06T04:34:41.609Z,7.72
2023-05-06T04:37:17.459Z,7.50
2023-05-06T04:39:55.876Z,8.07
2023-05-06T04:42:29.445Z,7.50
2023-05-06T04:45:14.420Z,6.38
2023-05-06T04:47:52.420Z,6.15
2023-05-06T04:50:26.454Z,6.28
2023-05-06T04:53:00.758Z,6.68
2023-05-06T04:55:35.841Z,6.93
2023-05-06T04:58:10.067Z,5.07
2023-05-06T05:00:46.319Z,6.47
2023-05-06T05:03:20.332Z,7.57
2023-05-06T05:05:54.040Z,6.70
2023-05-06T05:08:27.685Z,7.65
2023-05-06T05:11:01.320Z,6.63
2023-05-06T05:13:37.237Z,5.13
2023-05-06T05:16:14.388Z,5.68
2023-05-06T05:18:49.664Z,6.50
2023-05-06T05:21:28.389Z,5.90
2023-05-06T05:24:03.706Z,5.78
2023-05-06T05:26:37.386Z,4.90
2023-05-06T05:29:11.541Z,5.50
2023-05-06T05:31:46.734Z,5.43
2023-05-06T05:34:26.341Z,5.20
2023-05-06T05:37:00.100Z,5.53
2023-05-06T05:39:34.059Z,4.88
2023-05-06T05:42:07.822Z,5.72
2023-05-06T05:44:43.666Z,4.78
2023-05-06T05:47:18.598Z,5.57
2023-05-06T05:49:52.433Z,5.85
2023-05-06T05:52:26.230Z,5.47
2023-05-06T05:55:01.914Z,5.95
2023-05-06T05:57:35.617Z,5.85
2023-05-06T06:00:12.269Z,4.93
2023-05-06T06:02:53.973Z,5.20
2023-05-06T06:05:30.765Z,5.43
2023-05-06T06:08:06.143Z,4.53
2023-05-06T06:11:00.233Z,4.93
2023-05-06T06:13:40.646Z,4.32
2023-05-06T06:16:14.756Z,5.07
2023-05-06T06:18:50.082Z,6.03
2023-05-06T06:21:24.854Z,4.55
2023-05-06T06:23:59.575Z,4.80
2023-05-06T06:26:33.301Z,4.28
2023-05-06T06:29:06.951Z,4.28
2023-05-06T06:31:40.910Z,4.93
2023-05-06T06:34:15.940Z,4.43
2023-05-06T06:36:49.507Z,3.72
2023-05-06T06:39:24.163Z,3.72
2023-05-06T06:41:58.290Z,4.03
2023-05-06T06:44:31.886Z,3.95
2023-05-06T06:47:05.820Z,4.20
2023-05-06T06:49:40.832Z,3.22
2023-05-06T06:52:14.380Z,3.40
2023-05-06T06:54:48.353Z,3.90
2023-05-06T06:57:22.232Z,3.60
2023-05-06T06:59:56.063Z,3.70
2023-05-06T07:02:30.005Z,3.67
2023-05-06T07:05:06.428Z,3.65
2023-05-06T07:07:39.978Z,3.80
2023-05-06T07:10:13.722Z,3.83
2023-05-06T07:12:47.276Z,2.88
2023-05-06T07:15:21.104Z,3.17
2023-05-06T07:17:56.087Z,2.72
2023-05-06T07:20:31.513Z,2.53
2023-05-06T07:23:05.421Z,3.10
2023-05-06T07:25:39.411Z,2.70
2023-05-06T07:28:13.326Z,2.83
2023-05-06T07:30:48.316Z,3.03
2023-05-06T07:33:21.995Z,2.92
2023-05-06T07:35:57.331Z,2.65
2023-05-06T07:38:31.114Z,2.72
2023-05-06T07:41:07.661Z,2.80
2023-05-06T07:43:41.257Z,2.72
2023-05-06T07:46:14.892Z,2.53
2023-05-06T07:48:51.937Z,2.13
2023-05-06T07:51:28.552Z,2.85
2023-05-06T07:54:04.321Z,2.65
2023-05-06T07:56:42.184Z,2.72
2023-05-06T07:59:17.020Z,2.72
2023-05-06T08:01:51.940Z,2.63
2023-05-06T08:04:25.744Z,2.35
2023-05-06T08:07:02.504Z,2.45
2023-05-06T08:10:22.630Z,2.03
2023-05-06T08:13:07.339Z,1.95
2023-05-06T08:15:45.437Z,1.80
2023-05-06T08:18:23.215Z,2.53
2023-05-06T08:20:58.301Z,2.47
2023-05-06T08:23:34.886Z,2.58
2023-05-06T08:26:09.059Z,1.80
2023-05-06T08:28:43.113Z,2.60
2023-05-06T08:31:17.025Z,2.42
2023-05-06T08:33:53.165Z,2.10
2023-05-06T08:36:28.836Z,2.28
2023-05-06T08:39:07.079Z,2.85
2023-05-06T08:41:42.585Z,2.30
2023-05-06T08:44:19.466Z,2.40
2023-05-06T08:46:53.493Z,1.92
2023-05-06T08:49:27.728Z,2.05
2023-05-06T08:52:07.026Z,1.75
2023-05-06T08:54:43.793Z,1.92
2023-05-06T08:57:18.786Z,2.13
2023-05-06T08:59:52.798Z,1.63
2023-05-06T09:02:43.501Z,2.42
2023-05-06T09:05:19.586Z,2.20
2023-05-06T09:08:16.635Z,2.20
2023-05-06T09:10:53.056Z,2.67
2023-05-06T09:13:27.532Z,2.00
2023-05-06T09:16:01.616Z,2.15
2023-05-06T09:18:38.483Z,2.67
2023-05-06T09:21:12.497Z,2.95
2023-05-06T09:23:46.887Z,2.15
2023-05-06T09:26:26.525Z,2.10
2023-05-06T09:29:01.221Z,2.38
2023-05-06T09:31:40.972Z,1.95
2023-05-06T09:34:15.670Z,1.75
2023-05-06T09:36:49.166Z,2.17
2023-05-06T09:39:27.053Z,1.83
2023-05-06T09:42:02.344Z,2.00
2023-05-06T09:44:36.527Z,1.95
2023-05-06T09:47:10.491Z,1.85
2023-05-06T09:49:44.408Z,2.10
2023-05-06T09:52:19.452Z,2.17
2023-05-06T09:54:54.480Z,2.50
2023-05-06T09:57:31.130Z,1.80
2023-05-06T10:00:07.275Z,1.75
2023-05-06T10:02:48.077Z,1.92
2023-05-06T10:05:22.726Z,2.20
2023-05-06T10:07:58.305Z,2.17
2023-05-06T10:10:32.300Z,2.42
2023-05-06T10:13:07.561Z,4.18
2023-05-06T10:15:41.311Z,2.00
2023-05-06T10:18:16.917Z,1.90
2023-05-06T10:20:51.589Z,1.98
2023-05-06T10:23:32.530Z,2.22
2023-05-06T10:26:08.595Z,2.08
2023-05-06T10:28:44.810Z,2.40
2023-05-06T10:31:18.344Z,2.22
2023-05-06T10:33:53.795Z,2.65
2023-05-06T10:36:29.764Z,2.60
2023-05-06T10:39:04.912Z,1.80
2023-05-06T10:41:39.078Z,2.13
2023-05-06T10:44:14.183Z,2.00
2023-05-06T10:46:59.761Z,2.42
2023-05-06T10:49:33.406Z,2.00
2023-05-06T10:52:14.776Z,1.77
2023-05-06T10:54:52.575Z,2.33
2023-05-06T10:57:27.170Z,2.15
2023-05-06T11:00:02.523Z,4.07
2023-05-06T11:02:37.859Z,3.97
2023-05-06T11:05:12.751Z,2.30
2023-05-06T11:07:46.721Z,2.13
2023-05-06T11:10:34.002Z,2.03
2023-05-06T11:13:22.349Z,1.90
2023-05-06T11:15:58.548Z,1.88
2023-05-06T11:18:45.330Z,2.03
2023-05-06T11:21:38.961Z,2.33
2023-05-06T11:24:14.129Z,2.33
2023-05-06T11:26:49.117Z,2.72
2023-05-06T11:29:23.026Z,2.22
2023-05-06T11:31:58.362Z,1.95
2023-05-06T11:34:33.482Z,1.90
2023-05-06T11:37:09.616Z,1.88
2023-05-06T11:39:50.488Z,2.28
2023-05-06T11:42:28.563Z,2.17
2023-05-06T11:45:03.220Z,2.05
2023-05-06T11:47:45.795Z,2.13
2023-05-06T11:50:23.572Z,1.80
2023-05-06T11:52:57.213Z,1.98
2023-05-06T11:55:31.990Z,4.05
2023-05-06T11:58:05.741Z,2.88
2023-05-06T12:00:46.344Z,1.98
2023-05-06T12:03:21.876Z,6.32
2023-05-06T12:05:56.284Z,2.13
2023-05-06T12:08:33.016Z,4.47
2023-05-06T12:11:08.211Z,2.40
2023-05-06T12:13:42.119Z,3.70
2023-05-06T12:16:16.062Z,3.00
2023-05-06T12:18:53.508Z,3.78
2023-05-06T12:21:28.562Z,4.57
2023-05-06T12:24:02.666Z,11.43
2023-05-06T12:26:47.464Z,2.25
2023-05-06T12:29:21.069Z,2.78
2023-05-06T12:32:09.252Z,5.25
2023-05-06T12:34:44.288Z,6.05
2023-05-06T12:37:26.572Z,2.40
2023-05-06T12:40:00.222Z,1.77
2023-05-06T12:42:33.952Z,2.00
2023-05-06T12:45:17.637Z,3.03
2023-05-06T12:47:55.219Z,1.50
2023-05-06T12:50:41.809Z,2.13
2023-05-06T12:53:15.631Z,2.03
2023-05-06T12:55:49.751Z,1.45
2023-05-06T12:58:23.471Z,1.65
2023-05-06T13:00:57.122Z,2.13
2023-05-06T13:03:30.904Z,1.90
2023-05-06T13:06:06.979Z,1.85
2023-05-06T13:08:40.775Z,1.92
2023-05-06T13:11:14.689Z,1.60
2023-05-06T13:13:48.614Z,1.75
2023-05-06T13:16:22.629Z,1.50
2023-05-06T13:18:56.508Z,1.50
2023-05-06T13:21:32.100Z,2.17
2023-05-06T13:24:07.375Z,1.63
2023-05-06T13:26:41.274Z,1.83
2023-05-06T13:29:15.096Z,1.30
2023-05-06T13:31:48.787Z,1.48
2023-05-06T13:34:22.517Z,1.40
2023-05-06T13:36:57.712Z,1.83
2023-05-06T13:39:31.944Z,1.95
2023-05-06T13:42:11.841Z,1.92
2023-05-06T13:44:46.315Z,1.92
2023-05-06T13:47:21.614Z,1.75
2023-05-06T13:49:55.655Z,1.70
2023-05-06T13:52:31.226Z,1.80
2023-05-06T13:55:05.336Z,1.90
2023-05-06T13:57:39.126Z,1.55
2023-05-06T14:00:14.390Z,2.03
2023-05-06T14:02:48.204Z,1.83
2023-05-06T14:05:22.237Z,2.25
2023-05-06T14:07:57.658Z,2.00
2023-05-06T14:10:31.414Z,2.05
2023-05-06T14:13:07.045Z,2.30
2023-05-06T14:15:41.517Z,2.10
2023-05-06T14:18:15.337Z,2.35
2023-05-06T14:20:57.003Z,3.17
2023-05-06T14:23:41.967Z,2.92
2023-05-06T14:30:04.897Z,3.05
2023-05-06T14:57:58.701Z,4.28
2023-05-06T15:01:15.467Z,3.38
2023-05-06T15:13:34.027Z,3.17
2023-05-06T15:46:28.467Z,4.22
2023-05-06T15:51:14.705Z,6.60
2023-05-06T15:53:51.083Z,5.18
2023-05-06T15:56:27.081Z,3.95
2023-05-06T15:59:01.684Z,4.80
2023-05-06T16:02:19.033Z,4.80
2023-05-06T16:04:35.096Z,6.10
2023-05-06T16:07:10.253Z,6.75
2023-05-06T16:09:46.331Z,6.38
2023-05-06T16:12:21.095Z,6.07
2023-05-06T16:18:17.861Z,8.45
2023-05-06T16:27:40.219Z,6.70
2023-05-06T16:30:15.093Z,7.10
2023-05-06T16:32:49.118Z,6.88
2023-05-06T16:35:24.758Z,7.07
2023-05-06T16:37:58.845Z,6.70
2023-05-06T16:45:22.689Z,6.75
2023-05-06T16:47:56.540Z,5.80
2023-05-06T16:50:31.902Z,5.68
2023-05-06T16:53:05.686Z,5.30
2023-05-06T16:55:39.962Z,5.50
2023-05-06T16:58:25.274Z,7.03
2023-05-06T17:23:47.398Z,8.20
2023-05-06T17:26:21.522Z,7.25
2023-05-06T17:28:56.320Z,7.65
2023-05-06T17:31:30.242Z,7.35
2023-05-06T17:34:04.202Z,7.60
2023-05-06T17:36:51.762Z,7.18
2023-05-06T17:39:28.148Z,8.00
2023-05-06T17:42:03.061Z,7.20
2023-05-06T17:44:40.866Z,7.22
2023-05-06T17:47:24.583Z,7.72
2023-05-06T17:49:58.601Z,6.85
2023-05-06T17:52:32.345Z,5.35
2023-05-06T17:55:16.296Z,5.60
2023-05-06T17:57:52.686Z,5.30
2023-05-06T18:00:26.941Z,5.22
2023-05-06T18:03:51.746Z,6.20
2023-05-06T18:06:27.262Z,8.38
2023-05-06T18:09:01.216Z,7.07
2023-05-06T18:11:36.746Z,7.18
2023-05-06T18:14:11.314Z,8.23
2023-05-06T18:16:45.561Z,12.05
2023-05-06T18:19:20.246Z,9.77
2023-05-06T18:21:54.188Z,8.80
2023-05-06T18:24:28.194Z,6.57
2023-05-06T18:27:03.860Z,8.63
2023-05-06T18:29:37.710Z,6.90
2023-05-06T18:32:12.006Z,7.00
2023-05-06T18:34:45.906Z,8.55
2023-05-06T18:37:19.737Z,6.32
2023-05-06T18:39:53.926Z,7.70
2023-05-06T18:42:29.857Z,6.78
2023-05-06T18:45:04.775Z,8.50
2023-05-06T18:47:40.228Z,12.70
2023-05-06T18:50:14.767Z,8.38
2023-05-06T18:52:48.870Z,7.70
2023-05-06T18:55:25.398Z,7.60
2023-05-06T18:58:06.373Z,6.15
2023-05-06T19:00:41.194Z,7.15
2023-05-06T19:03:17.265Z,6.80
2023-05-06T19:05:52.809Z,6.38
2023-05-06T19:08:26.888Z,9.20
2023-05-06T19:11:02.557Z,7.25
2023-05-06T19:13:41.586Z,9.25
2023-05-06T19:16:16.267Z,9.13
2023-05-06T19:18:51.622Z,9.70
2023-05-06T19:21:26.048Z,10.75
2023-05-06T19:24:01.114Z,11.85
2023-05-06T19:26:38.905Z,11.15
2023-05-06T19:29:15.984Z,9.52
2023-05-06T19:31:56.001Z,9.13
2023-05-06T19:34:30.311Z,7.38
2023-05-06T19:37:06.085Z,8.18
2023-05-06T19:39:41.644Z,9.55
2023-05-06T19:42:23.366Z,7.43
2023-05-06T19:45:08.824Z,9.32
2023-05-06T19:47:44.305Z,9.60
2023-05-06T19:50:20.138Z,10.07
2023-05-06T19:52:55.173Z,13.43
2023-05-06T19:55:31.983Z,12.93
2023-05-06T19:58:09.137Z,13.38
2023-05-06T20:00:48.975Z,13.60
2023-05-06T20:03:27.470Z,12.30
2023-05-06T20:06:01.858Z,13.07
2023-05-06T20:08:42.157Z,12.23
2023-05-06T20:11:17.019Z,14.63
2023-05-06T20:13:51.745Z,13.45
2023-05-06T20:16:32.968Z,13.32
2023-05-06T20:19:08.423Z,15.07
2023-05-06T20:21:43.750Z,11.80
2023-05-06T20:24:20.655Z,8.07
2023-05-06T20:26:54.747Z,9.15
2023-05-06T20:29:30.038Z,8.77
2023-05-06T20:32:07.857Z,10.75
2023-05-06T20:34:41.976Z,8.23
2023-05-06T20:37:17.460Z,11.63
2023-05-06T20:39:51.670Z,13.65
2023-05-06T20:42:27.251Z,13.93
2023-05-06T20:45:08.035Z,10.80
2023-05-06T20:48:12.905Z,8.65
2023-05-06T20:50:49.369Z,8.65
2023-05-06T20:53:57.069Z,9.55
2023-05-06T20:56:35.575Z,10.48
2023-05-06T20:59:09.737Z,15.73
2023-05-06T21:52:42.560Z,11.30
2023-05-06T22:09:27.937Z,11.13
2023-05-06T22:12:09.912Z,9.73
2023-05-06T22:14:45.267Z,11.48
2023-05-06T22:17:19.800Z,10.27
2023-05-06T22:19:54.721Z,10.35
2023-05-06T22:22:29.049Z,7.93
2023-05-06T22:25:04.485Z,8.43
2023-05-06T22:27:38.703Z,10.00
2023-05-06T22:30:15.264Z,10.60
2023-05-06T22:32:49.907Z,9.55
2023-05-06T22:35:24.645Z,9.93
2023-05-06T22:37:58.846Z,9.02
2023-05-06T22:40:34.502Z,10.65
2023-05-06T22:43:08.776Z,9.88
2023-05-06T22:45:43.479Z,9.20
2023-05-06T22:48:18.518Z,9.13
2023-05-06T22:54:18.218Z,8.82
2023-05-06T22:57:01.827Z,7.95
2023-05-06T22:59:40.477Z,9.05
2023-05-06T23:02:17.629Z,9.07
2023-05-06T23:04:56.584Z,8.15
2023-05-06T23:07:30.986Z,7.57
2023-05-06T23:10:05.675Z,8.38
2023-05-06T23:12:42.147Z,9.50
2023-05-06T23:15:17.509Z,8.57
2023-05-06T23:17:53.445Z,8.43
2023-05-06T23:20:28.007Z,7.72
2023-05-06T23:23:02.522Z,7.10
2023-05-06T23:25:37.957Z,7.68
2023-05-06T23:28:14.258Z,8.27
2023-05-06T23:30:51.702Z,9.70
